Time;durP1;ratioP1;P1;durP2;ratioP2;P2;SDS_P1;SDS_P2;PMS_P1;PMS_P2;Temp;Humidity;BMP_temperature;BMP_pressure;BME280_temperature;BME280_humidity;BME280_pressure;Samples;Min_cycle;Max_cycle;Signal;HPM_P1;HPM_P2
2024/03/20 00:01:33;;;;;;;11.63;9.90;;;;;;;;;;5012257;28;20419;-81
2024/03/20 00:03:59;;;;;;;10.57;8.40;;;;;;;;;;5012053;28;20470;-81
2024/03/20 00:06:26;;;;;;;15.07;8.37;;;;;;;;;;5011829;28;20411;-81
2024/03/20 00:08:51;;;;;;;11.30;9.17;;;;;;;;;;5011859;28;20747;-81
2024/03/20 00:11:17;;;;;;;14.70;9.70;;;;;;;;;;5010871;28;20416;-81
2024/03/20 00:13:44;;;;;;;15.67;9.20;;;;;;;;;;5011832;28;20800;-82
2024/03/20 00:16:10;;;;;;;11.40;8.30;;;;;;;;;;5012276;28;20406;-82
2024/03/20 00:18:36;;;;;;;15.87;10.07;;;;;;;;;;5012165;28;20427;-82
2024/03/20 00:21:03;;;;;;;13.10;9.10;;;;;;;;;;5011742;28;20403;-82
2024/03/20 00:23:29;;;;;;;12.60;9.50;;;;;;;;;;5011546;28;20962;-82
2024/03/20 00:25:54;;;;;;;16.23;9.80;;;;;;;;;;5010034;28;20461;-81
2024/03/20 00:28:20;;;;;;;14.97;9.57;;;;;;;;;;5012623;28;20457;-82
2024/03/20 00:30:46;;;;;;;13.40;9.90;;;;;;;;;;5014940;28;20500;-81
2024/03/20 00:33:12;;;;;;;14.70;9.80;;;;;;;;;;5015470;28;20767;-82
2024/03/20 00:35:39;;;;;;;13.43;8.90;;;;;;;;;;5014938;28;20456;-82
2024/03/20 00:38:05;;;;;;;11.40;9.40;;;;;;;;;;5015385;28;20418;-81
2024/03/20 00:40:31;;;;;;;13.80;10.33;;;;;;;;;;5015236;28;20779;-81
2024/03/20 00:42:57;;;;;;;17.67;10.20;;;;;;;;;;5015249;28;20492;-81
2024/03/20 00:45:23;;;;;;;14.53;9.60;;;;;;;;;;5013710;28;20456;-81
2024/03/20 00:47:48;;;;;;;11.77;8.37;;;;;;;;;;5013142;28;20765;-81
2024/03/20 00:50:14;;;;;;;12.63;9.10;;;;;;;;;;5013789;28;20430;-81
2024/03/20 00:52:41;;;;;;;12.80;9.50;;;;;;;;;;5014858;28;20414;-81
2024/03/20 00:55:09;;;;;;;10.87;8.80;;;;;;;;;;5015465;28;20451;-81
2024/03/20 00:57:35;;;;;;;14.40;9.90;;;;;;;;;;5015440;28;20413;-81
2024/03/20 01:00:01;;;;;;;11.87;9.30;;;;;;;;;;5012869;28;20441;-81
2024/03/20 01:02:27;;;;;;;12.53;9.20;;;;;;;;;;5015396;28;20894;-82
2024/03/20 01:04:52;;;;;;;12.50;8.07;;;;;;;;;;5014814;28;20504;-81
2024/03/20 01:07:18;;;;;;;14.37;10.30;;;;;;;;;;5014110;28;20456;-81
2024/03/20 01:09:44;;;;;;;11.37;9.00;;;;;;;;;;5014050;28;20431;-81
2024/03/20 01:12:10;;;;;;;15.00;9.60;;;;;;;;;;5015117;28;20416;-81
2024/03/20 01:14:36;;;;;;;11.13;9.80;;;;;;;;;;5015144;28;20417;-81
2024/03/20 01:17:02;;;;;;;12.33;10.93;;;;;;;;;;5015065;28;20418;-82
2024/03/20 01:19:28;;;;;;;14.10;8.97;;;;;;;;;;5013540;28;20793;-81
2024/03/20 01:21:54;;;;;;;11.50;8.80;;;;;;;;;;5014584;28;20418;-81
2024/03/20 01:24:21;;;;;;;16.70;9.90;;;;;;;;;;5014763;28;20496;-81
2024/03/20 01:26:46;;;;;;;12.90;9.70;;;;;;;;;;5014520;28;20430;-80
2024/03/20 01:29:12;;;;;;;14.37;9.23;;;;;;;;;;5015024;28;20418;-81
2024/03/20 01:31:38;;;;;;;10.67;8.83;;;;;;;;;;5015047;28;20504;-81
2024/03/20 01:34:04;;;;;;;14.27;10.20;;;;;;;;;;5014396;28;20420;-81
2024/03/20 01:36:30;;;;;;;15.13;9.60;;;;;;;;;;5014376;28;20782;-80
2024/03/20 01:38:56;;;;;;;11.47;8.23;;;;;;;;;;5014695;28;20450;-80
2024/03/20 01:41:22;;;;;;;11.60;9.67;;;;;;;;;;5013993;28;20774;-80
2024/03/20 01:43:55;;;;;;;11.60;9.97;;;;;;;;;;5014286;28;20893;-81
2024/03/20 01:46:30;;;;;;;13.63;10.17;;;;;;;;;;5014464;28;20942;-80
2024/03/20 01:48:57;;;;;;;10.77;9.53;;;;;;;;;;5012805;28;20827;-80
2024/03/20 01:51:23;;;;;;;14.80;9.63;;;;;;;;;;5012791;28;20419;-81
2024/03/20 01:53:49;;;;;;;14.07;9.33;;;;;;;;;;5014384;28;20425;-81
2024/03/20 01:56:15;;;;;;;10.37;8.63;;;;;;;;;;5014426;28;20422;-80
2024/03/20 01:58:41;;;;;;;13.67;9.33;;;;;;;;;;5014392;28;20747;-81
2024/03/20 02:01:07;;;;;;;12.77;9.80;;;;;;;;;;5014350;28;20421;-80
2024/03/20 02:03:33;;;;;;;11.90;9.67;;;;;;;;;;5012904;28;20472;-81
2024/03/20 02:05:58;;;;;;;12.23;8.60;;;;;;;;;;5013660;28;20915;-81
2024/03/20 02:08:25;;;;;;;12.73;9.07;;;;;;;;;;5014114;28;20494;-80
2024/03/20 02:10:51;;;;;;;18.93;10.10;;;;;;;;;;5013803;28;20841;-81
2024/03/20 02:13:17;;;;;;;15.70;10.70;;;;;;;;;;5013810;28;20442;-80
2024/03/20 02:15:43;;;;;;;13.00;9.93;;;;;;;;;;5014004;28;20516;-81
2024/03/20 02:18:09;;;;;;;12.27;9.53;;;;;;;;;;5013942;28;20461;-81
2024/03/20 02:20:35;;;;;;;12.80;9.63;;;;;;;;;;5013382;28;20937;-81
2024/03/20 02:23:01;;;;;;;14.97;9.23;;;;;;;;;;5013626;28;20469;-81
2024/03/20 02:25:31;;;;;;;12.60;8.80;;;;;;;;;;5013910;28;20447;-81
2024/03/20 02:27:57;;;;;;;9.80;8.60;;;;;;;;;;5013852;28;20796;-81
2024/03/20 02:30:24;;;;;;;14.27;10.93;;;;;;;;;;5013753;28;20403;-82
2024/03/20 02:32:50;;;;;;;15.53;10.03;;;;;;;;;;5013847;28;20514;-81
2024/03/20 02:35:16;;;;;;;16.80;10.40;;;;;;;;;;5011983;28;20410;-81
2024/03/20 02:37:42;;;;;;;12.27;9.40;;;;;;;;;;5013568;28;20426;-81
2024/03/20 02:40:09;;;;;;;18.57;9.73;;;;;;;;;;5013588;28;20414;-80
2024/03/20 02:42:35;;;;;;;13.43;8.90;;;;;;;;;;5013141;28;20468;-82
2024/03/20 02:45:01;;;;;;;14.03;10.17;;;;;;;;;;5013318;28;20469;-82
2024/03/20 02:47:27;;;;;;;17.63;10.57;;;;;;;;;;5013528;28;20858;-82
2024/03/20 02:49:53;;;;;;;12.57;9.60;;;;;;;;;;5011772;28;20467;-81
2024/03/20 02:52:22;;;;;;;13.47;8.97;;;;;;;;;;5013306;28;20416;-82
2024/03/20 02:54:48;;;;;;;13.90;8.80;;;;;;;;;;5011989;28;20519;-81
2024/03/20 02:57:14;;;;;;;13.20;8.90;;;;;;;;;;5012959;28;20457;-81
2024/03/20 02:59:40;;;;;;;12.10;8.97;;;;;;;;;;5013380;28;20813;-80
2024/03/20 03:02:06;;;;;;;13.97;10.60;;;;;;;;;;5013232;28;20405;-80
2024/03/20 03:04:32;;;;;;;13.87;10.87;;;;;;;;;;5012655;28;20479;-80
2024/03/20 03:06:58;;;;;;;11.20;8.97;;;;;;;;;;5013278;28;20414;-80
2024/03/20 03:09:25;;;;;;;14.43;10.40;;;;;;;;;;5011712;28;20476;-80
2024/03/20 03:11:51;;;;;;;13.40;9.53;;;;;;;;;;5012812;28;20413;-80
2024/03/20 03:14:17;;;;;;;14.67;10.00;;;;;;;;;;5012994;28;20418;-80
2024/03/20 03:16:43;;;;;;;16.47;10.60;;;;;;;;;;5012810;28;20427;-81
2024/03/20 03:19:09;;;;;;;12.33;9.67;;;;;;;;;;5012632;28;20506;-80
2024/03/20 03:21:35;;;;;;;13.70;8.63;;;;;;;;;;5012685;28;20918;-80
2024/03/20 03:24:05;;;;;;;14.23;9.23;;;;;;;;;;5012681;28;21002;-80
2024/03/20 03:26:34;;;;;;;13.43;8.90;;;;;;;;;;5012989;28;20464;-81
2024/03/20 03:29:00;;;;;;;14.90;9.93;;;;;;;;;;5012218;28;20417;-81
2024/03/20 03:31:26;;;;;;;14.87;10.60;;;;;;;;;;5012911;28;20835;-80
2024/03/20 03:33:52;;;;;;;10.57;8.77;;;;;;;;;;5012935;28;20504;-81
2024/03/20 03:36:19;;;;;;;12.63;9.10;;;;;;;;;;5012455;28;20477;-80
2024/03/20 03:38:44;;;;;;;14.70;9.07;;;;;;;;;;5012836;28;20409;-80
2024/03/20 03:41:10;;;;;;;11.93;9.53;;;;;;;;;;5012840;28;20517;-80
2024/03/20 03:43:36;;;;;;;15.90;10.33;;;;;;;;;;5012745;28;20850;-80
2024/03/20 03:46:03;;;;;;;14.27;10.00;;;;;;;;;;5012652;28;20916;-80
2024/03/20 03:48:29;;;;;;;14.37;10.00;;;;;;;;;;5012718;28;20422;-80
2024/03/20 03:50:55;;;;;;;12.57;9.30;;;;;;;;;;5012412;28;20474;-80
2024/03/20 03:53:21;;;;;;;13.30;10.17;;;;;;;;;;5012796;28;20422;-81
2024/03/20 03:55:47;;;;;;;15.57;10.47;;;;;;;;;;5012450;28;20421;-81
2024/03/20 03:58:13;;;;;;;12.73;10.27;;;;;;;;;;5012651;28;20421;-80
2024/03/20 04:00:40;;;;;;;12.40;10.20;;;;;;;;;;5012681;28;20473;-81
2024/03/20 04:03:06;;;;;;;17.37;9.30;;;;;;;;;;5012554;28;20871;-81
2024/03/20 04:05:32;;;;;;;14.67;9.33;;;;;;;;;;5016154;28;20447;-80
2024/03/20 04:07:58;;;;;;;14.13;10.30;;;;;;;;;;5016501;28;20759;-81
2024/03/20 04:10:24;;;;;;;14.60;9.73;;;;;;;;;;5016045;28;20443;-81
2024/03/20 04:12:50;;;;;;;12.20;10.23;;;;;;;;;;5016290;28;20439;-81
2024/03/20 04:15:16;;;;;;;13.07;8.90;;;;;;;;;;5014716;28;20987;-80
2024/03/20 04:17:42;;;;;;;16.77;11.40;;;;;;;;;;5015909;28;20821;-81
2024/03/20 04:20:10;;;;;;;12.53;9.67;;;;;;;;;;5015857;28;20421;-80
2024/03/20 04:22:36;;;;;;;15.13;11.00;;;;;;;;;;5015964;28;20469;-81
2024/03/20 04:25:03;;;;;;;14.00;11.13;;;;;;;;;;5015328;28;20473;-81
2024/03/20 04:27:29;;;;;;;12.87;9.20;;;;;;;;;;5015967;28;20412;-81
2024/03/20 04:29:55;;;;;;;14.30;11.07;;;;;;;;;;5016005;28;20425;-81
2024/03/20 04:32:21;;;;;;;15.97;11.23;;;;;;;;;;5015964;28;20440;-81
2024/03/20 04:34:47;;;;;;;12.57;10.07;;;;;;;;;;5015670;28;20410;-81
2024/03/20 04:37:13;;;;;;;16.00;10.73;;;;;;;;;;5015937;28;20410;-81
2024/03/20 04:39:40;;;;;;;15.57;9.90;;;;;;;;;;5015379;28;20804;-81
2024/03/20 04:42:08;;;;;;;14.90;10.70;;;;;;;;;;5015881;28;20419;-81
2024/03/20 04:44:34;;;;;;;17.67;11.03;;;;;;;;;;5015688;28;20577;-81
2024/03/20 04:47:00;;;;;;;12.50;10.83;;;;;;;;;;5015789;28;20492;-81
2024/03/20 04:49:25;;;;;;;12.90;10.10;;;;;;;;;;5015304;28;20417;-81
2024/03/20 04:51:51;;;;;;;12.40;9.90;;;;;;;;;;5015204;28;20447;-81
2024/03/20 04:54:17;;;;;;;15.50;10.50;;;;;;;;;;5014225;28;20425;-81
2024/03/20 04:56:43;;;;;;;13.93;10.80;;;;;;;;;;5015483;28;20402;-80
2024/03/20 04:59:09;;;;;;;13.30;10.23;;;;;;;;;;5014214;28;20426;-80
2024/03/20 05:01:35;;;;;;;17.70;11.03;;;;;;;;;;5014708;28;20746;-80
2024/03/20 05:04:01;;;;;;;15.23;10.93;;;;;;;;;;5015227;28;20481;-80
2024/03/20 05:06:27;;;;;;;13.23;11.47;;;;;;;;;;5014997;28;20497;-81
2024/03/20 05:08:53;;;;;;;16.20;9.87;;;;;;;;;;5015221;28;20414;-81
2024/03/20 05:11:19;;;;;;;17.73;9.83;;;;;;;;;;5015058;28;20413;-81
2024/03/20 05:13:45;;;;;;;17.83;11.93;;;;;;;;;;5015184;28;20442;-80
2024/03/20 05:16:11;;;;;;;17.37;11.30;;;;;;;;;;5013957;28;20488;-81
2024/03/20 05:18:37;;;;;;;15.07;10.47;;;;;;;;;;5013886;28;20530;-81
2024/03/20 05:21:03;;;;;;;14.20;10.60;;;;;;;;;;5014672;28;20917;-81
2024/03/20 05:23:29;;;;;;;15.47;9.87;;;;;;;;;;5014596;28;20489;-81
2024/03/20 05:25:56;;;;;;;15.53;10.37;;;;;;;;;;5014608;28;20411;-81
2024/03/20 05:28:22;;;;;;;13.33;11.30;;;;;;;;;;5015155;28;20998;-81
2024/03/20 05:30:51;;;;;;;11.90;9.33;;;;;;;;;;5014901;28;20409;-81
2024/03/20 05:33:18;;;;;;;12.50;10.33;;;;;;;;;;5014532;28;20418;-81
2024/03/20 05:35:44;;;;;;;14.80;10.60;;;;;;;;;;5014272;28;20771;-82
2024/03/20 05:38:10;;;;;;;15.90;10.97;;;;;;;;;;5014767;28;20422;-82
2024/03/20 05:40:37;;;;;;;17.50;11.23;;;;;;;;;;5014666;28;20489;-83
2024/03/20 05:43:03;;;;;;;14.87;11.33;;;;;;;;;;5012656;28;20413;-82
2024/03/20 05:45:29;;;;;;;16.17;12.10;;;;;;;;;;5014193;28;20752;-82
2024/03/20 05:47:55;;;;;;;12.93;10.30;;;;;;;;;;5014325;28;20415;-83
2024/03/20 05:50:21;;;;;;;12.83;10.63;;;;;;;;;;5014084;28;20415;-82
2024/03/20 05:52:47;;;;;;;15.23;11.93;;;;;;;;;;5014197;28;20902;-83
2024/03/20 05:55:15;;;;;;;14.40;9.60;;;;;;;;;;5014521;28;20418;-82
2024/03/20 05:57:41;;;;;;;13.90;11.10;;;;;;;;;;5014303;28;20174;-83
2024/03/20 06:00:14;;;;;;;16.53;11.67;;;;;;;;;;5013178;28;20563;-83
2024/03/20 06:02:41;;;;;;;14.10;9.60;;;;;;;;;;5014170;28;20505;-82
2024/03/20 06:05:07;;;;;;;14.00;10.20;;;;;;;;;;5013617;28;20830;-82
2024/03/20 06:07:33;;;;;;;14.37;11.40;;;;;;;;;;5014054;28;20901;-82
2024/03/20 06:09:59;;;;;;;15.37;10.67;;;;;;;;;;5011265;28;20421;-82
2024/03/20 06:12:27;;;;;;;13.57;10.43;;;;;;;;;;5002812;28;20930;-82
2024/03/20 06:14:53;;;;;;;18.50;11.90;;;;;;;;;;5001413;28;20426;-83
2024/03/20 06:17:19;;;;;;;12.87;9.93;;;;;;;;;;5013144;28;20506;-83
2024/03/20 06:19:45;;;;;;;17.03;11.03;;;;;;;;;;5013177;28;20526;-84
2024/03/20 06:22:11;;;;;;;16.30;13.55;;;;;;;;;;5012276;28;20461;-83
2024/03/20 06:24:39;;;;;;;16.43;11.90;;;;;;;;;;5012587;28;20668;-83
2024/03/20 06:27:05;;;;;;;20.97;12.10;;;;;;;;;;5012613;28;20403;-83
2024/03/20 06:29:32;;;;;;;13.93;10.93;;;;;;;;;;5013055;28;20479;-82
2024/03/20 06:31:58;;;;;;;15.30;11.03;;;;;;;;;;5013401;28;20411;-82
2024/03/20 06:34:24;;;;;;;16.27;11.00;;;;;;;;;;5012622;28;20509;-81
2024/03/20 06:36:50;;;;;;;16.10;11.27;;;;;;;;;;5013053;28;20505;-82
2024/03/20 06:39:16;;;;;;;17.50;11.63;;;;;;;;;;5011349;28;20423;-82
2024/03/20 06:41:46;;;;;;;21.00;12.67;;;;;;;;;;5012815;28;20188;-82
2024/03/20 06:44:14;;;;;;;15.50;11.13;;;;;;;;;;5011337;28;20486;-83
2024/03/20 06:46:40;;;;;;;14.83;10.27;;;;;;;;;;5011751;28;21039;-82
2024/03/20 06:49:09;;;;;;;17.30;11.43;;;;;;;;;;5013026;28;20892;-85
2024/03/20 06:51:36;;;;;;;15.67;12.00;;;;;;;;;;5013124;28;20412;-85
2024/03/20 06:54:09;;;;;;;16.40;12.83;;;;;;;;;;5013113;28;20435;-85
2024/03/20 06:56:35;;;;;;;15.57;12.67;;;;;;;;;;5012909;28;20402;-84
2024/03/20 06:59:01;;;;;;;19.60;11.00;;;;;;;;;;5013016;28;20414;-87
2024/03/20 07:01:27;;;;;;;14.90;11.70;;;;;;;;;;5012706;28;20489;-87
2024/03/20 07:03:53;;;;;;;14.83;11.57;;;;;;;;;;5012018;28;20556;-85
2024/03/20 07:06:19;;;;;;;18.90;12.63;;;;;;;;;;5012595;28;20493;-86
2024/03/20 07:08:45;;;;;;;16.63;11.97;;;;;;;;;;5012659;28;20838;-86
2024/03/20 07:11:11;;;;;;;15.77;11.87;;;;;;;;;;5011502;28;20548;-83
2024/03/20 07:13:37;;;;;;;14.60;11.73;;;;;;;;;;5012082;28;20896;-85
2024/03/20 07:16:03;;;;;;;16.37;12.07;;;;;;;;;;5012861;28;20425;-85
2024/03/20 07:18:29;;;;;;;17.30;13.13;;;;;;;;;;5011410;28;20420;-85
2024/03/20 07:20:55;;;;;;;14.73;12.70;;;;;;;;;;5012367;28;20510;-83
2024/03/20 07:23:21;;;;;;;18.17;13.07;;;;;;;;;;5012071;28;20985;-85
2024/03/20 07:25:47;;;;;;;18.37;11.63;;;;;;;;;;5012082;28;20509;-85
2024/03/20 07:28:13;;;;;;;18.90;13.57;;;;;;;;;;5011009;28;20434;-87
2024/03/20 07:30:39;;;;;;;18.63;12.40;;;;;;;;;;5012605;28;20903;-86
2024/03/20 07:33:05;;;;;;;17.63;12.10;;;;;;;;;;5011791;28;20432;-86
2024/03/20 07:35:41;;;;;;;14.90;12.90;;;;;;;;;;5011014;28;20432;-83
2024/03/20 07:38:09;;;;;;;17.80;11.77;;;;;;;;;;5011972;28;20555;-85
2024/03/20 07:40:35;;;;;;;18.17;13.87;;;;;;;;;;5016450;28;20418;-84
2024/03/20 07:43:01;;;;;;;16.90;12.87;;;;;;;;;;5016544;28;20435;-85
2024/03/20 07:45:27;;;;;;;20.13;13.57;;;;;;;;;;5016291;28;20486;-84
2024/03/20 07:47:54;;;;;;;14.37;12.10;;;;;;;;;;5015117;28;20426;-85
2024/03/20 07:50:20;;;;;;;18.10;11.53;;;;;;;;;;5016061;28;20954;-85
2024/03/20 07:52:47;;;;;;;20.60;13.27;;;;;;;;;;5016425;28;20404;-84
2024/03/20 07:55:13;;;;;;;14.33;11.37;;;;;;;;;;5015799;28;20406;-86
2024/03/20 07:57:39;;;;;;;18.73;13.40;;;;;;;;;;5015982;28;20437;-81
2024/03/20 08:00:08;;;;;;;21.23;12.87;;;;;;;;;;5016335;28;20493;-85
2024/03/20 08:02:34;;;;;;;19.90;13.43;;;;;;;;;;5016221;28;20504;-84
2024/03/20 08:05:00;;;;;;;21.13;14.13;;;;;;;;;;5013282;28;20566;-85
2024/03/20 08:07:26;;;;;;;17.33;12.93;;;;;;;;;;5001568;28;20416;-85
2024/03/20 08:09:52;;;;;;;19.80;12.67;;;;;;;;;;4995178;28;20422;-85
2024/03/20 08:12:18;;;;;;;17.90;13.50;;;;;;;;;;5012384;28;20423;-85
2024/03/20 08:14:44;;;;;;;21.07;13.53;;;;;;;;;;5015829;28;20429;-85
2024/03/20 08:17:10;;;;;;;14.27;12.23;;;;;;;;;;5015942;28;20417;-86
2024/03/20 08:19:36;;;;;;;20.57;12.47;;;;;;;;;;5014250;28;20432;-85
2024/03/20 08:22:02;;;;;;;16.73;11.83;;;;;;;;;;5013836;28;20541;-86
2024/03/20 08:24:28;;;;;;;16.07;12.23;;;;;;;;;;5015220;28;20216;-86
2024/03/20 08:26:54;;;;;;;18.23;12.70;;;;;;;;;;5015541;28;20412;-86
2024/03/20 08:29:20;;;;;;;17.37;12.70;;;;;;;;;;5015307;28;20186;-86
2024/03/20 08:31:46;;;;;;;14.93;13.07;;;;;;;;;;5014492;28;20443;-86
2024/03/20 08:34:12;;;;;;;15.53;11.90;;;;;;;;;;5015310;28;20442;-86
2024/03/20 08:36:38;;;;;;;16.87;13.30;;;;;;;;;;5015084;28;20433;-85
2024/03/20 08:39:03;;;;;;;18.33;12.53;;;;;;;;;;5015507;28;20504;-85
2024/03/20 08:41:29;;;;;;;19.20;14.10;;;;;;;;;;5014044;28;20653;-85
2024/03/20 08:43:55;;;;;;;20.10;14.30;;;;;;;;;;5015382;28;20473;-86
2024/03/20 08:46:23;;;;;;;18.40;14.07;;;;;;;;;;5015086;28;20203;-85
2024/03/20 08:48:49;;;;;;;18.57;13.30;;;;;;;;;;5014916;28;20420;-86
2024/03/20 08:51:14;;;;;;;17.00;14.17;;;;;;;;;;5013930;28;20417;-85
2024/03/20 08:53:40;;;;;;;17.50;12.13;;;;;;;;;;5015212;28;20752;-86
2024/03/20 08:56:06;;;;;;;21.90;13.57;;;;;;;;;;5014993;28;20179;-86
2024/03/20 08:58:32;;;;;;;17.77;13.80;;;;;;;;;;5015173;28;20194;-85
2024/03/20 09:00:58;;;;;;;14.90;12.47;;;;;;;;;;5015068;28;20425;-86
2024/03/20 09:03:24;;;;;;;14.83;12.00;;;;;;;;;;5013735;28;20473;-85
2024/03/20 09:05:50;;;;;;;18.43;14.57;;;;;;;;;;5014252;28;20422;-85
2024/03/20 09:08:16;;;;;;;19.70;14.17;;;;;;;;;;5013475;28;20422;-86
2024/03/20 09:10:42;;;;;;;18.87;13.33;;;;;;;;;;5014518;28;20233;-85
2024/03/20 09:13:08;;;;;;;16.27;13.70;;;;;;;;;;5013645;28;20171;-86
2024/03/20 09:15:33;;;;;;;18.30;13.87;;;;;;;;;;5013668;28;20271;-85
2024/03/20 09:18:00;;;;;;;18.20;14.77;;;;;;;;;;5013758;28;20178;-83
2024/03/20 09:20:28;;;;;;;17.33;14.00;;;;;;;;;;5014635;28;20181;-85
2024/03/20 09:22:55;;;;;;;20.73;15.60;;;;;;;;;;5014590;28;20518;-86
2024/03/20 09:25:21;;;;;;;22.57;14.30;;;;;;;;;;5014941;28;20446;-86
2024/03/20 09:27:47;;;;;;;19.10;15.60;;;;;;;;;;5014811;28;21072;-85
2024/03/20 09:30:16;;;;;;;21.33;15.13;;;;;;;;;;5014932;28;20448;-85
2024/03/20 09:32:43;;;;;;;19.80;15.70;;;;;;;;;;5014757;28;20890;-85
2024/03/20 09:35:10;;;;;;;19.10;15.30;;;;;;;;;;5014409;28;20920;-86
2024/03/20 09:37:36;;;;;;;17.23;13.70;;;;;;;;;;5013638;28;20449;-82
2024/03/20 09:40:06;;;;;;;18.87;14.77;;;;;;;;;;5014722;28;20414;-83
2024/03/20 09:42:32;;;;;;;20.10;15.40;;;;;;;;;;5014521;28;20431;-83
2024/03/20 09:44:58;;;;;;;19.77;15.50;;;;;;;;;;5014572;28;20991;-84
2024/03/20 09:47:25;;;;;;;17.07;13.97;;;;;;;;;;5014541;28;20413;-84
2024/03/20 09:49:53;;;;;;;17.80;13.00;;;;;;;;;;5014221;28;20419;-83
2024/03/20 09:52:20;;;;;;;18.23;14.77;;;;;;;;;;5014463;28;20416;-84
2024/03/20 09:54:46;;;;;;;15.60;14.00;;;;;;;;;;5013639;28;20422;-83
2024/03/20 09:57:14;;;;;;;19.23;15.87;;;;;;;;;;5014636;28;20445;-84
2024/03/20 09:59:47;;;;;;;18.03;15.57;;;;;;;;;;5012492;28;20432;-83
2024/03/20 10:02:12;;;;;;;17.57;15.90;;;;;;;;;;5012384;28;20948;-86
2024/03/20 10:04:39;;;;;;;18.27;16.17;;;;;;;;;;5013803;28;20565;-85
2024/03/20 10:07:15;;;;;;;18.30;16.40;;;;;;;;;;5014421;28;20628;-84
2024/03/20 10:09:47;;;;;;;20.50;16.77;;;;;;;;;;5013983;28;20453;-85
2024/03/20 10:12:14;;;;;;;17.80;16.10;;;;;;;;;;5012934;28;20426;-84
2024/03/20 10:14:40;;;;;;;18.33;16.67;;;;;;;;;;5014139;28;20492;-86
2024/03/20 10:17:15;;;;;;;19.90;17.63;;;;;;;;;;5013931;28;20465;-85
2024/03/20 10:19:42;;;;;;;19.03;17.20;;;;;;;;;;5013556;28;20214;-84
2024/03/20 10:22:09;;;;;;;19.13;17.27;;;;;;;;;;5013886;28;20406;-85
2024/03/20 10:24:35;;;;;;;20.80;18.60;;;;;;;;;;5013878;28;20414;-85
2024/03/20 10:27:05;;;;;;;21.87;19.80;;;;;;;;;;5013857;28;20449;-84
2024/03/20 10:29:31;;;;;;;21.00;19.10;;;;;;;;;;5013654;28;20818;-87
2024/03/20 10:31:58;;;;;;;24.87;22.33;;;;;;;;;;5012545;28;20426;-85
2024/03/20 10:34:24;;;;;;;20.17;18.20;;;;;;;;;;5013358;28;20469;-85
2024/03/20 10:36:50;;;;;;;22.60;20.40;;;;;;;;;;5013782;28;20410;-84
2024/03/20 10:39:23;;;;;;;22.57;20.50;;;;;;;;;;5013577;28;20875;-85
2024/03/20 10:41:49;;;;;;;24.50;22.03;;;;;;;;;;5013410;28;20405;-85
2024/03/20 10:44:16;;;;;;;22.70;20.50;;;;;;;;;;5013603;28;20417;-84
2024/03/20 10:46:44;;;;;;;23.30;20.97;;;;;;;;;;5013459;28;20410;-84
2024/03/20 10:49:13;;;;;;;23.20;21.00;;;;;;;;;;5013150;28;20505;-84
2024/03/20 10:51:39;;;;;;;24.17;21.60;;;;;;;;;;5012923;28;20422;-84
2024/03/20 10:54:05;;;;;;;24.90;22.70;;;;;;;;;;5011515;28;20503;-83
2024/03/20 10:56:31;;;;;;;24.30;22.10;;;;;;;;;;5012779;28;20418;-84
2024/03/20 10:59:03;;;;;;;26.27;23.53;;;;;;;;;;5012804;28;20921;-85
2024/03/20 11:01:32;;;;;;;27.70;24.83;;;;;;;;;;5012387;28;20171;-84
2024/03/20 11:03:58;;;;;;;27.47;24.80;;;;;;;;;;5011282;28;20512;-84
2024/03/20 11:06:30;;;;;;;27.27;24.47;;;;;;;;;;5012705;28;20855;-84
2024/03/20 11:09:00;;;;;;;26.57;23.93;;;;;;;;;;5012653;28;20526;-84
2024/03/20 11:11:27;;;;;;;25.50;22.90;;;;;;;;;;5012420;28;20437;-84
2024/03/20 11:13:53;;;;;;;25.87;23.33;;;;;;;;;;5011586;28;20874;-85
2024/03/20 11:16:22;;;;;;;26.57;23.80;;;;;;;;;;5012623;28;20452;-82
2024/03/20 11:18:52;;;;;;;27.53;22.50;;;;;;;;;;5010170;28;20456;-85
2024/03/20 11:21:20;;;;;;;24.97;22.57;;;;;;;;;;5011946;28;20781;-86
2024/03/20 11:23:47;;;;;;;25.30;22.80;;;;;;;;;;5011299;28;20454;-85
2024/03/20 11:26:13;;;;;;;26.57;23.87;;;;;;;;;;5012248;28;20476;-84
2024/03/20 11:28:45;;;;;;;23.97;21.43;;;;;;;;;;5012407;28;20414;-86
2024/03/20 11:31:11;;;;;;;23.10;20.80;;;;;;;;;;5008909;28;20433;-85
2024/03/20 11:33:40;;;;;;;23.30;21.17;;;;;;;;;;5010840;28;20457;-84
2024/03/20 11:36:06;;;;;;;23.27;20.97;;;;;;;;;;5011321;28;20413;-85
2024/03/20 11:38:33;;;;;;;23.47;21.07;;;;;;;;;;5011417;28;20817;-86
2024/03/20 11:40:59;;;;;;;21.20;18.93;;;;;;;;;;5012725;28;20437;-85
2024/03/20 11:43:25;;;;;;;20.60;18.60;;;;;;;;;;5009451;28;20429;-85
2024/03/20 11:45:51;;;;;;;22.10;19.93;;;;;;;;;;5012222;28;20452;-86
2024/03/20 11:48:17;;;;;;;21.77;19.57;;;;;;;;;;5011772;28;20438;-86
2024/03/20 11:50:43;;;;;;;21.17;18.97;;;;;;;;;;5012255;28;20614;-84
2024/03/20 11:53:13;;;;;;;21.00;18.90;;;;;;;;;;5011990;28;20453;-83
2024/03/20 11:55:39;;;;;;;22.17;19.83;;;;;;;;;;5012377;28;20417;-84
2024/03/20 11:58:07;;;;;;;21.57;19.10;;;;;;;;;;5011434;28;20428;-84
2024/03/20 12:00:33;;;;;;;23.23;20.87;;;;;;;;;;5012494;28;20480;-84
2024/03/20 12:02:59;;;;;;;20.67;18.10;;;;;;;;;;5012474;28;20457;-84
2024/03/20 12:05:27;;;;;;;23.10;20.70;;;;;;;;;;5012271;28;20910;-84
2024/03/20 12:08:00;;;;;;;21.37;19.10;;;;;;;;;;5011272;28;20406;-85
2024/03/20 12:10:34;;;;;;;20.73;18.63;;;;;;;;;;5011186;28;20430;-84
2024/03/20 12:13:00;;;;;;;23.10;20.80;;;;;;;;;;5012301;28;20933;-85
2024/03/20 12:15:27;;;;;;;22.40;20.00;;;;;;;;;;5012347;28;20516;-84
2024/03/20 12:17:54;;;;;;;23.17;20.80;;;;;;;;;;5045889;22;20494;-85
2024/03/20 12:20:20;;;;;;;21.57;19.57;;;;;;;;;;4992465;28;20422;-84
2024/03/20 12:22:46;;;;;;;22.43;20.33;;;;;;;;;;4992785;28;20414;-83
2024/03/20 12:25:12;;;;;;;23.83;20.60;;;;;;;;;;4994772;28;21014;-83
2024/03/20 12:27:38;;;;;;;21.87;19.63;;;;;;;;;;4996069;28;20513;-84
2024/03/20 12:30:05;;;;;;;23.47;21.10;;;;;;;;;;4996387;28;20514;-83
2024/03/20 12:32:32;;;;;;;22.00;20.00;;;;;;;;;;4996408;28;20410;-84
2024/03/20 12:34:59;;;;;;;25.87;19.80;;;;;;;;;;4995738;28;20880;-84
2024/03/20 12:37:26;;;;;;;25.10;22.40;;;;;;;;;;4996239;28;20407;-83
2024/03/20 12:39:52;;;;;;;22.70;20.50;;;;;;;;;;4996011;28;20419;-84
2024/03/20 12:42:18;;;;;;;21.00;18.90;;;;;;;;;;4994989;28;20419;-85
2024/03/20 12:44:45;;;;;;;23.83;21.60;;;;;;;;;;4995790;28;20187;-85
2024/03/20 12:47:11;;;;;;;22.10;19.03;;;;;;;;;;4995900;28;20179;-86
2024/03/20 12:49:37;;;;;;;22.10;20.00;;;;;;;;;;4978317;28;20565;-84
2024/03/20 12:52:04;;;;;;;23.90;21.30;;;;;;;;;;4996005;28;20501;-85
2024/03/20 12:54:30;;;;;;;22.97;20.67;;;;;;;;;;4995829;28;20211;-85
2024/03/20 12:56:57;;;;;;;22.70;20.43;;;;;;;;;;4995899;28;20465;-85
2024/03/20 12:59:23;;;;;;;22.70;20.30;;;;;;;;;;4995945;28;20812;-84
2024/03/20 13:01:49;;;;;;;21.43;19.33;;;;;;;;;;4995704;28;20411;-84
2024/03/20 13:04:15;;;;;;;22.10;19.83;;;;;;;;;;4995409;28;20454;-85
2024/03/20 13:06:41;;;;;;;21.70;19.47;;;;;;;;;;4995729;28;20501;-86
2024/03/20 13:09:10;;;;;;;20.47;18.40;;;;;;;;;;4995547;28;20180;-84
2024/03/20 13:11:36;;;;;;;19.80;17.70;;;;;;;;;;4995620;28;20194;-84
2024/03/20 13:14:03;;;;;;;21.77;19.47;;;;;;;;;;4995484;28;20501;-84
2024/03/20 13:16:29;;;;;;;19.43;17.37;;;;;;;;;;4995322;28;20410;-84
2024/03/20 13:18:58;;;;;;;22.43;17.60;;;;;;;;;;4995116;28;20448;-83
2024/03/20 13:21:26;;;;;;;23.20;18.40;;;;;;;;;;4994340;28;20411;-84
2024/03/20 13:24:08;;;;;;;21.33;19.27;;;;;;;;;;4995504;28;20438;-84
2024/03/20 13:26:35;;;;;;;20.17;18.07;;;;;;;;;;4995377;28;20411;-82
2024/03/20 13:29:02;;;;;;;23.03;16.87;;;;;;;;;;4995139;28;20450;-82
2024/03/20 13:31:28;;;;;;;18.40;16.50;;;;;;;;;;4995578;28;20422;-82
2024/03/20 13:33:57;;;;;;;18.50;16.40;;;;;;;;;;4995155;28;20490;-83
2024/03/20 13:36:23;;;;;;;19.40;16.90;;;;;;;;;;4994374;28;20769;-83
2024/03/20 13:39:11;;;;;;;19.03;16.40;;;;;;;;;;4995524;28;20824;-83
2024/03/20 13:41:47;;;;;;;16.83;15.20;;;;;;;;;;4989176;28;20470;-83
2024/03/20 13:44:13;;;;;;;21.03;17.17;;;;;;;;;;4995181;28;20422;-83
2024/03/20 13:46:46;;;;;;;19.67;15.50;;;;;;;;;;4993023;28;20436;-83
2024/03/20 13:49:12;;;;;;;16.50;14.73;;;;;;;;;;5042433;22;20484;-84
2024/03/20 13:51:40;;;;;;;17.60;15.67;;;;;;;;;;4994889;28;20413;-83
2024/03/20 13:54:07;;;;;;;15.77;14.07;;;;;;;;;;4994786;28;20469;-83
2024/03/20 13:56:33;;;;;;;15.07;13.47;;;;;;;;;;4993617;28;20433;-82
2024/03/20 13:58:59;;;;;;;17.27;14.33;;;;;;;;;;4993502;28;20509;-82
2024/03/20 14:01:27;;;;;;;17.23;14.27;;;;;;;;;;4994634;28;20825;-83
2024/03/20 14:03:52;;;;;;;15.83;14.13;;;;;;;;;;4994424;28;20756;-83
2024/03/20 14:06:19;;;;;;;18.60;14.33;;;;;;;;;;4992581;28;20422;-83
2024/03/20 14:08:47;;;;;;;17.97;14.70;;;;;;;;;;4993898;28;20536;-83
2024/03/20 14:11:14;;;;;;;14.53;12.90;;;;;;;;;;4993650;28;20417;-83
2024/03/20 14:13:40;;;;;;;17.53;15.23;;;;;;;;;;4994322;28;20458;-84
2024/03/20 14:16:07;;;;;;;16.83;14.23;;;;;;;;;;5005384;28;20420;-83
2024/03/20 14:18:34;;;;;;;20.37;15.47;;;;;;;;;;4996901;28;20693;-82